Time;durP1;ratioP1;P1;durP2;ratioP2;P2;SDS_P1;SDS_P2;PMS_P1;PMS_P2;Temp;Humidity;BMP_temperature;BMP_pressure;BME280_temperature;BME280_humidity;BME280_pressure;Samples;Min_cycle;Max_cycle;Signal;HPM_P1;HPM_P2
2022/03/13 00:01:42;;;;;;;;;8.00;7.75;;;;;9.99;80.70;100908.28;4934574;28;46986;-68
2022/03/13 00:04:08;;;;;;;;;8.75;8.00;;;;;10.00;80.62;100915.25;4934487;28;45544;-69
2022/03/13 00:06:35;;;;;;;;;5.00;5.00;;;;;9.99;80.71;100908.28;4935189;28;45366;-69
2022/03/13 00:09:05;;;;;;;;;7.50;4.25;;;;;10.02;80.46;100920.44;4932818;28;45538;-69
2022/03/13 00:11:30;;;;;;;;;7.75;7.00;;;;;10.03;80.51;100911.66;4930085;28;46099;-68
2022/03/13 00:13:57;;;;;;;;;6.75;6.75;;;;;10.02;80.20;100910.78;4934501;28;45596;-68
2022/03/13 00:16:23;;;;;;;;;8.75;8.75;;;;;10.03;80.10;100915.16;4935069;28;45388;-68
2022/03/13 00:18:49;;;;;;;;;8.00;7.00;;;;;10.05;80.15;100912.44;4935158;28;45517;-68
2022/03/13 00:21:18;;;;;;;;;9.50;6.50;;;;;10.07;80.34;100918.50;4934110;28;47069;-68
2022/03/13 00:23:45;;;;;;;;;4.25;4.25;;;;;10.07;79.96;100908.84;4917608;28;45479;-68
2022/03/13 00:26:15;;;;;;;;;10.50;7.00;;;;;10.08;80.06;100926.34;4934576;28;45586;-68
2022/03/13 00:28:40;;;;;;;;;8.50;6.50;;;;;10.10;79.87;100908.75;4934305;28;45432;-68
2022/03/13 00:31:06;;;;;;;;;9.75;8.00;;;;;10.12;80.05;100906.91;4974492;28;45433;-68
2022/03/13 00:33:32;;;;;;;;;7.75;7.75;;;;;10.13;79.58;100913.88;5013998;28;45907;-68
2022/03/13 00:35:58;;;;;;;;;7.00;5.50;;;;;10.14;79.49;100909.50;5010531;28;45427;-68
2022/03/13 00:38:25;;;;;;;;;4.50;4.50;;;;;10.16;79.48;100908.50;4991972;28;45473;-68
2022/03/13 00:40:51;;;;;;;;;7.50;6.25;;;;;10.18;79.71;100909.31;5010579;28;46349;-68
2022/03/13 00:43:19;;;;;;;;;8.25;6.50;;;;;10.19;79.46;100916.28;5014158;28;45770;-69
2022/03/13 00:45:44;;;;;;;;;6.50;3.50;;;;;10.20;79.18;100911.88;5010807;28;45302;-69
2022/03/13 00:48:10;;;;;;;;;7.00;6.50;;;;;10.21;79.17;100905.69;5010013;28;45785;-68
2022/03/13 00:50:36;;;;;;;;;6.25;6.00;;;;;10.21;78.93;100908.31;5009030;28;45404;-69
2022/03/13 00:53:02;;;;;;;;;6.00;6.00;;;;;10.21;79.09;100897.81;5009500;28;45753;-69
2022/03/13 00:55:27;;;;;;;;;8.00;7.50;;;;;10.24;78.85;100895.13;5014101;28;45515;-68
2022/03/13 00:57:52;;;;;;;;;6.75;4.00;;;;;10.26;78.89;100890.66;5011065;28;49606;-69
2022/03/13 01:00:18;;;;;;;;;6.25;6.25;;;;;10.27;78.59;100894.97;5010177;28;46290;-69
2022/03/13 01:02:43;;;;;;;;;6.50;5.00;;;;;10.28;78.63;100888.81;5013653;28;45464;-69
2022/03/13 01:05:10;;;;;;;;;6.50;6.50;;;;;10.30;78.32;100892.25;5009819;28;45274;-69
2022/03/13 01:07:37;;;;;;;;;6.75;6.75;;;;;10.32;78.72;100903.53;5014105;28;45570;-68
2022/03/13 01:10:06;;;;;;;;;6.25;4.00;;;;;10.35;78.16;100889.44;5015226;28;45852;-68
2022/03/13 01:12:32;;;;;;;;;9.00;6.75;;;;;10.36;78.07;100883.25;5010146;28;45431;-69
2022/03/13 01:14:57;;;;;;;;;6.25;6.00;;;;;10.37;77.86;100887.59;5009867;28;45277;-69
2022/03/13 01:17:22;;;;;;;;;6.00;4.50;;;;;10.37;77.64;100884.97;5009794;28;45393;-69
2022/03/13 01:19:48;;;;;;;;;7.25;7.25;;;;;10.39;77.59;100878.75;5011110;28;45492;-68
2022/03/13 01:22:13;;;;;;;;;5.50;3.50;;;;;10.40;77.28;100871.72;5012745;28;45368;-69
2022/03/13 01:24:43;;;;;;;;;7.00;7.00;;;;;10.41;77.31;100876.91;5010414;28;45390;-68
2022/03/13 01:27:09;;;;;;;;;6.50;6.25;;;;;10.42;77.33;100875.13;5009635;28;45567;-69
2022/03/13 01:29:34;;;;;;;;;6.00;6.00;;;;;10.44;77.63;100865.44;5009498;28;45347;-69
2022/03/13 01:32:00;;;;;;;;;7.75;6.00;;;;;10.45;77.34;100867.16;4993700;28;45927;-69
2022/03/13 01:34:46;;;;;;;;;7.75;4.50;;;;;10.43;77.02;100864.56;5013544;28;45532;-69
2022/03/13 01:37:15;;;;;;;;;9.50;6.00;;;;;10.44;76.92;100860.19;5011680;28;45555;-69
2022/03/13 01:39:42;;;;;;;;;7.25;4.50;;;;;10.45;77.01;100849.59;5014541;28;45657;-69
2022/03/13 01:42:07;;;;;;;;;5.00;5.00;;;;;10.47;77.05;100846.06;5009548;28;45786;-69
2022/03/13 01:44:33;;;;;;;;;8.50;7.75;;;;;10.47;76.83;100849.53;5009303;28;45457;-69
2022/03/13 01:47:01;;;;;;;;;6.00;3.75;;;;;10.48;76.89;100843.34;5009283;28;45479;-69
2022/03/13 01:49:26;;;;;;;;;7.00;5.00;;;;;10.48;76.33;100847.75;5013394;28;46572;-68
2022/03/13 01:51:51;;;;;;;;;7.25;7.25;;;;;10.48;76.96;100845.13;5009930;28;45373;-69
2022/03/13 01:54:17;;;;;;;;;7.25;7.00;;;;;10.47;76.49;100839.03;5009742;28;45265;-69
2022/03/13 01:56:43;;;;;;;;;5.00;5.00;;;;;10.47;76.69;100832.91;5009203;28;45486;-69
2022/03/13 01:59:10;;;;;;;;;8.25;6.50;;;;;10.47;76.83;100839.03;5009066;28;46222;-69
2022/03/13 02:01:37;;;;;;;;;7.50;6.75;;;;;10.44;76.45;100828.66;5014669;28;45448;-69
2022/03/13 02:04:02;;;;;;;;;9.75;8.00;;;;;10.43;76.64;100827.78;5015565;28;45289;-70
2022/03/13 02:06:28;;;;;;;;;6.00;6.00;;;;;10.43;76.25;100832.19;5012822;28;45680;-69
2022/03/13 02:08:54;;;;;;;;;14.00;7.25;;;;;10.39;76.41;100823.59;5016900;28;46162;-69
2022/03/13 02:11:22;;;;;;;;;10.50;7.75;;;;;10.33;76.25;100815.94;5012461;28;45981;-69
2022/03/13 02:13:50;;;;;;;;;9.50;8.50;;;;;10.24;76.39;100824.19;5013828;28;45815;-68
2022/03/13 02:16:18;;;;;;;;;10.25;10.25;;;;;10.15;76.36;100829.78;5016281;28;45424;-69
2022/03/13 02:18:55;;;;;;;;;10.50;8.25;;;;;10.04;76.56;100819.69;5012532;28;46387;-69
2022/03/13 02:21:25;;;;;;;;;7.75;7.75;;;;;9.94;77.00;100813.94;5016916;28;45914;-69
2022/03/13 02:23:50;;;;;;;;;5.50;5.50;;;;;9.86;76.65;100809.91;5012357;28;45404;-69
2022/03/13 02:26:15;;;;;;;;;8.00;7.00;;;;;9.80;76.92;100800.50;5012005;28;45574;-69
2022/03/13 02:28:52;;;;;;;;;11.25;8.00;;;;;9.72;76.91;100799.09;5014610;28;47889;-69
2022/03/13 02:31:25;;;;;;;;;9.00;7.50;;;;;9.66;77.11;100798.44;5015757;28;45377;-69
2022/03/13 02:33:53;;;;;;;;;8.50;7.00;;;;;9.59;77.36;100796.94;5015433;28;46820;-69
2022/03/13 02:36:36;;;;;;;;;11.00;7.00;;;;;9.54;77.81;100784.91;4994588;28;45697;-69
2022/03/13 02:39:03;;;;;;;;;9.25;7.25;;;;;9.49;77.70;100786.84;5016295;28;45669;-69
2022/03/13 02:41:29;;;;;;;;;11.25;8.00;;;;;9.43;77.67;100780.06;5011961;28;45381;-69
2022/03/13 02:43:56;;;;;;;;;15.00;8.75;;;;;9.39;77.96;100786.31;5012584;28;45835;-69
2022/03/13 02:46:24;;;;;;;;;10.50;9.00;;;;;9.35;78.05;100767.25;5000603;28;45495;-69
2022/03/13 02:48:51;;;;;;;;;11.00;8.75;;;;;9.32;78.17;100774.38;5012366;28;46356;-69
2022/03/13 02:51:17;;;;;;;;;11.00;7.50;;;;;9.28;77.63;100776.22;5011759;28;45947;-69
2022/03/13 02:53:42;;;;;;;;;10.50;8.75;;;;;9.25;77.86;100775.50;5011883;28;45459;-69
2022/03/13 02:56:08;;;;;;;;;12.00;7.50;;;;;9.23;77.78;100769.44;5012146;28;45407;-68
2022/03/13 02:58:34;;;;;;;;;7.50;6.75;;;;;9.20;78.25;100772.19;5014757;28;46190;-69
2022/03/13 03:00:59;;;;;;;;;8.75;8.75;;;;;9.18;77.95;100774.84;5013092;28;45286;-69
2022/03/13 03:03:25;;;;;;;;;7.75;7.75;;;;;9.15;78.16;100770.59;5015923;28;45561;-69
2022/03/13 03:05:51;;;;;;;;;8.75;7.50;;;;;9.12;78.14;100768.06;5011674;28;45525;-69
2022/03/13 03:08:17;;;;;;;;;13.00;11.00;;;;;9.10;78.32;100769.91;4994124;28;46428;-69
2022/03/13 03:10:43;;;;;;;;;10.50;8.00;;;;;9.08;77.89;100761.25;5013469;28;45515;-69
2022/03/13 03:13:10;;;;;;;;;5.00;3.50;;;;;9.06;78.42;100757.81;5013884;28;45593;-69
2022/03/13 03:15:36;;;;;;;;;6.25;6.00;;;;;9.03;77.84;100770.16;4994532;28;45758;-69
2022/03/13 03:18:04;;;;;;;;;12.50;10.50;;;;;9.00;78.50;100771.16;5010627;28;48429;-69
2022/03/13 03:20:30;;;;;;;;;11.00;8.00;;;;;8.98;78.41;100772.97;5004969;28;45809;-69
2022/03/13 03:22:55;;;;;;;;;6.75;6.75;;;;;8.95;78.18;100780.94;5011643;28;45579;-68
2022/03/13 03:25:24;;;;;;;;;6.00;6.00;;;;;8.93;78.58;100777.53;5015790;28;45524;-69
2022/03/13 03:27:53;;;;;;;;;9.25;6.75;;;;;8.89;78.75;100774.16;5016324;28;46142;-68
2022/03/13 03:30:24;;;;;;;;;10.25;7.75;;;;;8.87;78.49;100778.59;5011326;28;45391;-68
2022/03/13 03:32:50;;;;;;;;;10.00;10.00;;;;;8.86;78.55;100771.63;5013489;28;47890;-69
2022/03/13 03:35:19;;;;;;;;;7.25;7.25;;;;;8.85;78.54;100776.94;4993216;28;45435;-68
2022/03/13 03:37:45;;;;;;;;;10.25;7.25;;;;;8.82;78.56;100777.03;5012719;28;45502;-68
2022/03/13 03:40:11;;;;;;;;;10.50;7.00;;;;;8.79;78.41;100775.38;5013874;28;45432;-68
2022/03/13 03:42:36;;;;;;;;;9.25;8.50;;;;;8.79;78.54;100772.75;5011762;28;45408;-69
2022/03/13 03:45:03;;;;;;;;;8.75;7.00;;;;;8.76;78.60;100774.63;5010795;28;45744;-68
2022/03/13 03:47:28;;;;;;;;;11.50;7.50;;;;;8.75;78.56;100770.31;5010296;28;46012;-69
2022/03/13 03:49:53;;;;;;;;;7.00;5.50;;;;;8.74;78.79;100772.06;5011759;28;45456;-69
2022/03/13 03:52:19;;;;;;;;;7.75;7.75;;;;;8.71;78.48;100760.81;5015372;28;45467;-68
2022/03/13 03:54:44;;;;;;;;;9.75;6.00;;;;;8.70;78.45;100761.75;5011537;28;45664;-69
2022/03/13 03:57:09;;;;;;;;;7.50;6.25;;;;;8.69;78.64;100760.03;5010622;28;46381;-69
2022/03/13 03:59:35;;;;;;;;;8.00;8.00;;;;;8.66;78.33;100760.97;5010749;28;45479;-68
2022/03/13 04:02:00;;;;;;;;;7.25;7.00;;;;;8.68;78.39;100759.19;5013896;28;45454;-68
2022/03/13 04:04:25;;;;;;;;;7.00;5.00;;;;;8.69;78.48;100760.88;5015242;28;45454;-68
2022/03/13 04:06:51;;;;;;;;;10.25;7.00;;;;;8.69;78.38;100760.03;5011014;28;45417;-68
2022/03/13 04:09:16;;;;;;;;;6.75;6.00;;;;;8.71;78.42;100755.59;5010779;28;45421;-68
2022/03/13 04:11:43;;;;;;;;;10.00;6.25;;;;;8.70;78.49;100761.75;5010163;28;45385;-69
2022/03/13 04:14:11;;;;;;;;;5.25;5.25;;;;;8.69;78.37;100755.66;5010766;28;45422;-69
2022/03/13 04:16:36;;;;;;;;;6.00;5.75;;;;;8.72;78.42;100762.53;5013179;28;46394;-68
2022/03/13 04:19:02;;;;;;;;;10.75;6.00;;;;;8.74;78.12;100760.72;5012375;28;45482;-68
2022/03/13 04:21:27;;;;;;;;;9.25;6.00;;;;;8.77;77.93;100765.84;5011049;28;45446;-69
2022/03/13 04:23:53;;;;;;;;;6.25;6.00;;;;;8.79;78.28;100771.91;5009900;28;45362;-68
2022/03/13 04:26:19;;;;;;;;;7.00;6.00;;;;;8.81;78.09;100760.44;5009973;28;46804;-69
2022/03/13 04:28:45;;;;;;;;;6.50;6.00;;;;;8.82;77.75;100763.94;5011930;28;45680;-69
2022/03/13 04:31:12;;;;;;;;;8.00;5.50;;;;;8.84;77.66;100768.22;5013007;28;45844;-69
2022/03/13 04:33:37;;;;;;;;;7.75;5.50;;;;;8.88;77.91;100774.22;5010769;28;45421;-69
2022/03/13 04:36:12;;;;;;;;;8.00;7.00;;;;;8.92;77.30;100767.09;5012668;28;46799;-69
2022/03/13 04:38:37;;;;;;;;;9.50;5.50;;;;;8.97;77.75;100771.25;5009971;28;45775;-68
2022/03/13 04:41:03;;;;;;;;;6.25;5.00;;;;;9.01;77.19;100770.22;5010255;28;45443;-68
2022/03/13 04:43:28;;;;;;;;;5.00;5.00;;;;;9.07;77.36;100777.03;5014172;28;45444;-69
2022/03/13 04:45:53;;;;;;;;;3.50;3.50;;;;;9.10;77.10;100775.16;5010954;28;45396;-69
2022/03/13 04:48:19;;;;;;;;;7.25;6.00;;;;;9.13;76.95;100775.06;5010089;28;45470;-69
2022/03/13 04:50:46;;;;;;;;;6.00;4.25;;;;;9.16;76.82;100768.81;5009945;28;45408;-69
2022/03/13 04:53:11;;;;;;;;;7.50;5.50;;;;;9.19;76.40;100771.34;5010117;28;45414;-69
2022/03/13 04:55:37;;;;;;;;;6.50;5.00;;;;;9.20;76.42;100770.44;5012804;28;46481;-68
2022/03/13 04:58:02;;;;;;;;;6.50;4.25;;;;;9.22;76.39;100767.75;5011479;28;45474;-69
2022/03/13 05:00:28;;;;;;;;;9.50;6.00;;;;;9.17;75.83;100759.19;5010459;28;45372;-68
2022/03/13 05:02:55;;;;;;;;;6.50;6.50;;;;;9.18;76.03;100761.75;5009462;28;45551;-69
2022/03/13 05:05:22;;;;;;;;;3.00;3.00;;;;;9.14;76.10;100758.41;5012599;28;46310;-69
2022/03/13 05:07:48;;;;;;;;;6.50;4.00;;;;;9.18;75.53;100755.66;5013936;28;45874;-68
2022/03/13 05:10:15;;;;;;;;;6.00;6.00;;;;;9.21;75.78;100758.19;5014364;28;45247;-69
2022/03/13 05:12:40;;;;;;;;;6.25;4.50;;;;;9.22;75.98;100758.09;5010248;28;45405;-69
2022/03/13 05:15:05;;;;;;;;;6.75;3.00;;;;;9.23;75.67;100758.97;5009630;28;45490;-68
2022/03/13 05:17:31;;;;;;;;;5.50;3.25;;;;;9.25;75.60;100754.53;5010052;28;45540;-69
2022/03/13 05:19:56;;;;;;;;;7.75;3.50;;;;;9.25;75.38;100749.28;5009806;28;45420;-69
2022/03/13 05:22:22;;;;;;;;;3.00;2.50;;;;;9.25;75.13;100749.28;5014395;28;45476;-69
2022/03/13 05:24:47;;;;;;;;;4.25;2.25;;;;;9.25;75.32;100746.66;5009906;28;50985;-68
2022/03/13 05:27:13;;;;;;;;;4.75;3.75;;;;;9.23;74.87;100754.56;5009163;28;45319;-69
2022/03/13 05:29:38;;;;;;;;;6.50;3.00;;;;;9.19;75.14;100746.88;5009610;28;45415;-69
2022/03/13 05:32:04;;;;;;;;;2.50;2.50;;;;;9.17;74.99;100764.44;5012658;28;45495;-69
2022/03/13 05:34:29;;;;;;;;;5.75;3.50;;;;;9.13;74.88;100761.94;5012953;28;46303;-69
2022/03/13 05:36:54;;;;;;;;;3.00;3.00;;;;;9.09;75.19;100754.25;5012883;28;46639;-68
2022/03/13 05:39:20;;;;;;;;;2.00;2.00;;;;;9.07;74.80;100766.53;5013440;28;45472;-69
2022/03/13 05:41:45;;;;;;;;;2.25;2.25;;;;;9.04;75.32;100769.28;5012568;28;45419;-69
2022/03/13 05:44:12;;;;;;;;;2.50;2.50;;;;;9.01;75.03;100775.47;5012832;28;45456;-68
2022/03/13 05:46:39;;;;;;;;;3.00;3.00;;;;;8.97;75.14;100781.72;5015442;28;45560;-69
2022/03/13 05:49:04;;;;;;;;;2.75;2.75;;;;;8.91;74.92;100774.09;5015210;28;45350;-69
2022/03/13 05:51:35;;;;;;;;;4.50;2.00;;;;;8.90;75.31;100777.63;5013754;28;45511;-69
2022/03/13 05:54:02;;;;;;;;;2.50;2.00;;;;;8.86;75.44;100776.03;5012528;28;47425;-69
2022/03/13 05:56:27;;;;;;;;;5.00;2.50;;;;;8.82;75.42;100777.03;5012367;28;45556;-69
2022/03/13 05:58:53;;;;;;;;;6.00;3.00;;;;;8.77;75.01;100771.97;5013410;28;45351;-69
2022/03/13 06:01:18;;;;;;;;;5.00;3.00;;;;;8.76;75.27;100779.88;5016490;28;48314;-69
2022/03/13 06:03:43;;;;;;;;;7.00;6.00;;;;;8.73;75.37;100778.22;5012313;28;45287;-69
2022/03/13 06:06:09;;;;;;;;;5.00;2.75;;;;;8.72;75.73;100779.13;5015442;28;45533;-69
2022/03/13 06:08:34;;;;;;;;;6.75;5.00;;;;;8.72;75.38;100779.13;5011122;28;45273;-69
2022/03/13 06:10:59;;;;;;;;;7.25;4.75;;;;;8.73;75.71;100783.47;5012503;28;45502;-68
2022/03/13 06:13:25;;;;;;;;;5.00;4.50;;;;;8.71;75.29;100785.25;5016671;28;46038;-69
2022/03/13 06:15:50;;;;;;;;;3.00;2.00;;;;;8.75;75.60;100784.25;5013428;28;45223;-69
2022/03/13 06:18:16;;;;;;;;;6.00;6.00;;;;;8.78;75.47;100792.03;5012502;28;45449;-69
2022/03/13 06:20:41;;;;;;;;;4.00;4.00;;;;;8.81;75.29;100789.28;5012497;28;45438;-69
2022/03/13 06:23:09;;;;;;;;;7.25;5.50;;;;;8.84;75.09;100790.94;5012269;28;46090;-68
2022/03/13 06:25:34;;;;;;;;;3.00;3.00;;;;;8.86;75.41;100792.59;5015323;28;45519;-68
2022/03/13 06:28:00;;;;;;;;;2.50;2.50;;;;;8.90;75.25;100795.97;5014041;28;45352;-68
2022/03/13 06:30:25;;;;;;;;;6.75;3.00;;;;;8.93;75.26;100797.63;5012732;28;45545;-68
2022/03/13 06:32:53;;;;;;;;;3.00;3.00;;;;;8.96;74.85;100794.91;5011735;28;46004;-69
2022/03/13 06:35:20;;;;;;;;;3.00;3.00;;;;;9.02;74.65;100806.00;5014986;28;45501;-69
2022/03/13 06:37:48;;;;;;;;;2.00;2.00;;;;;9.07;74.89;100800.59;5013863;28;45495;-69
2022/03/13 06:40:17;;;;;;;;;5.00;2.00;;;;;9.14;74.65;100802.97;5014975;28;45436;-68
2022/03/13 06:42:44;;;;;;;;;4.75;2.75;;;;;9.24;74.51;100800.00;5012506;28;46087;-68
2022/03/13 06:45:10;;;;;;;;;2.00;2.00;;;;;9.33;74.13;100805.75;5012204;28;45761;-68
2022/03/13 06:47:37;;;;;;;;;3.75;1.50;;;;;9.40;74.27;100804.66;5010802;28;45305;-69
2022/03/13 06:50:03;;;;;;;;;3.75;3.00;;;;;9.49;73.85;100810.44;4982251;28;45467;-68
2022/03/13 06:52:28;;;;;;;;;2.75;2.75;;;;;9.52;73.33;100803.34;5014748;28;46184;-68
2022/03/13 06:54:54;;;;;;;;;5.75;3.75;;;;;9.50;73.39;100793.78;5011420;28;45415;-68
2022/03/13 06:57:19;;;;;;;;;4.50;2.75;;;;;9.58;73.35;100800.47;5011912;28;45518;-68
2022/03/13 06:59:44;;;;;;;;;3.00;3.00;;;;;9.63;73.34;100806.41;5014210;28;45670;-69
2022/03/13 07:02:11;;;;;;;;;5.00;4.75;;;;;9.65;73.03;100809.81;5011511;28;46121;-69
2022/03/13 07:04:37;;;;;;;;;2.25;2.00;;;;;9.70;72.89;100800.91;5015073;28;45496;-69
2022/03/13 07:07:03;;;;;;;;;6.00;3.75;;;;;9.74;72.70;100807.75;5015843;28;45363;-69
2022/03/13 07:09:28;;;;;;;;;3.00;3.00;;;;;9.78;71.94;100807.59;5007860;28;45429;-69
2022/03/13 07:11:53;;;;;;;;;3.50;1.75;;;;;9.85;72.26;100809.06;5012125;28;46140;-69
2022/03/13 07:14:21;;;;;;;;;4.50;3.75;;;;;9.92;71.80;100807.91;5011101;28;45357;-69
2022/03/13 07:16:47;;;;;;;;;5.50;1.75;;;;;10.00;71.43;100798.88;5014972;28;45365;-69
2022/03/13 07:19:12;;;;;;;;;2.50;2.50;;;;;10.08;71.81;100797.66;5015185;28;45408;-69
2022/03/13 07:21:38;;;;;;;;;8.50;3.00;;;;;10.14;71.17;100796.56;5015805;28;45701;-69
2022/03/13 07:24:04;;;;;;;;;3.75;2.50;;;;;10.29;71.06;100795.13;4992361;28;45630;-69
2022/03/13 07:26:30;;;;;;;;;3.67;3.00;;;;;10.37;70.78;100785.13;5011233;28;45667;-69
2022/03/13 07:28:55;;;;;;;;;2.00;2.00;;;;;10.59;69.78;100792.97;5015625;28;45531;-69
2022/03/13 07:31:21;;;;;;;;;2.00;2.00;;;;;10.85;69.97;100790.09;5011053;28;46295;-69
2022/03/13 07:33:46;;;;;;;;;2.00;2.00;;;;;11.06;69.74;100792.72;5015893;28;45391;-68
2022/03/13 07:36:12;;;;;;;;;4.50;3.00;;;;;11.17;69.04;100796.59;5014041;28;45492;-70
2022/03/13 07:38:37;;;;;;;;;2.00;2.00;;;;;11.24;68.35;100805.06;5010794;28;45407;-71
2022/03/13 07:41:03;;;;;;;;;2.25;2.25;;;;;11.39;68.86;100795.63;5010950;28;46147;-71
2022/03/13 07:43:29;;;;;;;;;4.00;2.50;;;;;11.61;68.17;100796.34;5014679;28;45875;-70
2022/03/13 07:45:54;;;;;;;;;3.00;3.00;;;;;12.22;68.50;100792.63;5009056;28;45264;-70
2022/03/13 07:48:19;;;;;;;;;2.00;2.00;;;;;12.84;66.12;100793.88;5011302;28;45596;-70
2022/03/13 07:50:45;;;;;;;;;4.25;2.75;;;;;13.01;65.39;100793.88;5010716;28;46043;-70
2022/03/13 07:53:10;;;;;;;;;2.75;2.75;;;;;13.21;65.31;100792.88;5010496;28;45418;-70
2022/03/13 07:55:36;;;;;;;;;2.50;2.25;;;;;13.47;64.60;100795.91;5014407;28;45274;-70
2022/03/13 07:58:01;;;;;;;;;6.00;2.75;;;;;13.36;63.28;100792.97;5012473;28;45993;-70
2022/03/13 08:00:26;;;;;;;;;2.25;2.25;;;;;13.25;64.28;100797.03;5010989;28;45457;-70
2022/03/13 08:02:54;;;;;;;;;2.25;2.25;;;;;13.16;63.35;100789.59;5014451;28;45522;-70
2022/03/13 08:05:23;;;;;;;;;4.00;3.50;;;;;13.31;62.96;100791.44;5010670;28;45457;-70
2022/03/13 08:07:49;;;;;;;;;4.00;2.00;;;;;13.64;62.83;100787.91;5011904;28;45309;-70
2022/03/13 08:10:20;;;;;;;;;3.00;3.00;;;;;14.04;62.38;100780.38;5012418;28;46132;-70
2022/03/13 08:12:45;;;;;;;;;3.00;3.00;;;;;14.39;61.88;100778.38;5010937;28;45487;-70
2022/03/13 08:15:11;;;;;;;;;3.00;2.00;;;;;14.89;61.66;100779.88;5012407;28;45425;-70
2022/03/13 08:17:37;;;;;;;;;2.25;2.25;;;;;15.51;60.84;100775.16;5010716;28;45633;-70
2022/03/13 08:20:04;;;;;;;;;2.50;2.50;;;;;16.39;60.11;100773.00;5010476;28;46565;-71
2022/03/13 08:22:29;;;;;;;;;4.00;4.00;;;;;17.83;58.72;100769.22;5013314;28;45685;-70
2022/03/13 08:24:55;;;;;;;;;2.75;2.00;;;;;20.21;56.03;100760.47;5010850;28;45467;-70
2022/03/13 08:27:20;;;;;;;;;5.25;5.00;;;;;22.49;53.37;100763.69;5014794;28;45615;-70
2022/03/13 08:29:46;;;;;;;;;3.00;3.00;;;;;24.06;49.58;100753.94;5010234;28;46150;-70
2022/03/13 08:32:11;;;;;;;;;3.00;3.00;;;;;25.68;49.28;100753.38;5010549;28;45425;-70
2022/03/13 08:34:38;;;;;;;;;2.75;2.50;;;;;27.39;47.68;100749.88;5013438;28;45443;-70
2022/03/13 08:37:04;;;;;;;;;2.75;2.00;;;;;28.55;42.90;100751.72;5012028;28;45306;-70
2022/03/13 08:39:29;;;;;;;;;3.00;3.00;;;;;29.38;42.51;100754.22;5010139;28;46295;-71
2022/03/13 08:41:54;;;;;;;;;2.50;2.50;;;;;30.64;41.47;100755.66;5010194;28;45540;-70
2022/03/13 08:44:20;;;;;;;;;1.50;1.50;;;;;29.86;37.61;100757.38;5009995;28;45401;-70
2022/03/13 08:46:45;;;;;;;;;1.50;1.50;;;;;28.90;36.96;100757.47;5012117;28;45499;-70
2022/03/13 08:49:12;;;;;;;;;1.00;1.00;;;;;26.57;36.64;100776.13;5012935;28;50128;-70
2022/03/13 08:51:37;;;;;;;;;2.00;2.00;;;;;24.40;38.59;100786.38;5010231;28;45593;-70
2022/03/13 08:54:03;;;;;;;;;1.00;1.00;;;;;23.11;39.26;100781.94;5009389;28;45239;-70
2022/03/13 08:56:29;;;;;;;;;2.00;2.00;;;;;22.79;40.03;100782.28;5012827;28;45416;-70
2022/03/13 08:58:55;;;;;;;;;1.00;1.00;;;;;22.76;40.50;100784.38;5010257;28;47061;-70
2022/03/13 09:01:22;;;;;;;;;122.25;108.50;;;;;23.91;41.06;100777.81;5013825;28;45439;-71
2022/03/13 09:03:48;;;;;;;;;0.25;0.25;;;;;26.04;39.29;100774.72;5010697;28;45484;-71
2022/03/13 09:06:13;;;;;;;;;0.50;0.50;;;;;27.81;36.59;100771.13;5009467;28;45498;-71
2022/03/13 09:08:38;;;;;;;;;2.50;1.25;;;;;27.73;34.16;100775.75;5009640;28;46206;-71
2022/03/13 09:11:04;;;;;;;;;3.00;1.25;;;;;26.48;34.46;100769.09;5010843;28;49838;-71
2022/03/13 09:13:29;;;;;;;;;1.00;0.50;;;;;24.94;35.46;100770.16;5017510;28;45456;-70
2022/03/13 09:15:56;;;;;;;;;0.50;0.00;;;;;23.44;35.89;100777.91;5014612;28;45385;-71
2022/03/13 09:18:22;;;;;;;;;2.00;2.00;;;;;23.20;37.47;100774.03;5017971;28;46709;-71
2022/03/13 09:20:47;;;;;;;;;2.00;1.00;;;;;23.86;37.58;100780.09;5012815;28;45581;-71
2022/03/13 09:23:12;;;;;;;;;0.75;0.00;;;;;24.00;36.72;100781.41;5013450;28;45296;-70
2022/03/13 09:25:38;;;;;;;;;2.00;1.00;;;;;23.25;36.72;100780.66;5015382;28;45482;-70
2022/03/13 09:28:04;;;;;;;;;1.00;1.00;;;;;22.12;37.52;100785.81;5017620;28;45920;-70
2022/03/13 09:30:29;;;;;;;;;1.00;1.00;;;;;21.02;38.69;100788.34;5013710;28;45431;-70
2022/03/13 09:32:55;;;;;;;;;1.00;1.00;;;;;20.04;39.58;100782.34;5013353;28;45475;-71
2022/03/13 09:35:20;;;;;;;;;2.00;2.00;;;;;19.35;40.66;100792.34;5012613;28;45498;-70
2022/03/13 09:37:46;;;;;;;;;1.00;1.00;;;;;18.88;41.57;100786.22;5014989;28;45393;-70
2022/03/13 09:40:14;;;;;;;;;1.00;1.00;;;;;18.46;41.63;100785.84;5015640;28;45638;-70
2022/03/13 09:42:39;;;;;;;;;1.25;1.25;;;;;18.07;42.59;100787.84;5014123;28;45399;-71
2022/03/13 09:45:05;;;;;;;;;1.00;1.00;;;;;17.68;42.84;100780.91;5015213;28;45494;-70
2022/03/13 09:47:31;;;;;;;;;1.75;1.50;;;;;17.33;43.64;100784.28;5012552;28;46318;-70
2022/03/13 09:49:57;;;;;;;;;1.50;1.00;;;;;17.18;44.15;100764.13;5014700;28;45420;-70
2022/03/13 09:52:23;;;;;;;;;2.75;1.25;;;;;17.11;44.89;100774.28;5017751;28;45367;-70
2022/03/13 09:54:49;;;;;;;;;1.00;1.00;;;;;16.99;44.94;100784.94;5013155;28;45301;-70
2022/03/13 09:57:14;;;;;;;;;1.00;1.00;;;;;16.76;45.07;100778.53;5011531;28;45680;-71
2022/03/13 09:59:40;;;;;;;;;0.75;0.75;;;;;16.49;45.20;100779.41;5016532;28;45372;-71
2022/03/13 10:02:08;;;;;;;;;1.75;1.00;;;;;16.25;45.80;100783.69;5012724;28;45376;-70
2022/03/13 10:04:34;;;;;;;;;1.75;1.00;;;;;16.00;46.21;100773.84;4997133;28;45479;-71
2022/03/13 10:07:10;;;;;;;;;0.00;0.00;;;;;15.81;46.73;100779.47;5014177;28;46318;-71
2022/03/13 10:09:37;;;;;;;;;1.00;1.00;;;;;15.72;47.16;100772.13;5015796;28;47095;-70
2022/03/13 10:12:10;;;;;;;;;2.00;2.00;;;;;15.68;47.57;100791.81;5012261;28;45428;-71
2022/03/13 10:15:05;;;;;;;;;1.75;0.50;;;;;15.59;47.69;100782.59;5012474;28;45405;-70
2022/03/13 10:17:34;;;;;;;;;4.75;1.50;;;;;15.44;47.73;100778.25;5024349;28;47437;-71
2022/03/13 10:20:14;;;;;;;;;1.25;1.00;;;;;15.28;47.94;100784.50;5023247;28;45394;-72
2022/03/13 10:22:40;;;;;;;;;0.00;0.00;;;;;15.20;48.20;100788.59;5015425;28;45396;-71
2022/03/13 10:25:05;;;;;;;;;2.00;2.00;;;;;15.13;48.70;100782.81;5015563;28;45322;-71
2022/03/13 10:27:33;;;;;;;;;2.75;1.75;;;;;15.05;48.70;100790.38;5021172;28;47453;-72
2022/03/13 10:30:00;;;;;;;;;0.75;0.75;;;;;14.87;49.16;100785.22;5012467;28;45475;-71
2022/03/13 10:32:26;;;;;;;;;1.00;1.00;;;;;14.73;49.86;100777.28;5016961;28;45389;-71
2022/03/13 10:34:54;;;;;;;;;2.75;1.00;;;;;14.65;49.74;100771.59;5000222;28;45451;-72
2022/03/13 10:37:43;;;;;;;;;2.00;2.00;;;;;14.56;50.26;100774.75;5018211;28;45569;-71
2022/03/13 10:40:14;;;;;;;;;6.75;4.25;;;;;14.48;50.51;100774.38;5014487;28;45397;-73
2022/03/13 10:42:44;;;;;;;;;1.00;1.00;;;;;14.45;50.66;100762.13;5017129;28;45343;-70
2022/03/13 10:45:12;;;;;;;;;1.25;1.25;;;;;14.42;50.88;100769.44;5022136;28;47067;-70
2022/03/13 10:47:38;;;;;;;;;2.00;2.00;;;;;14.41;51.00;100778.28;5020988;28;45432;-71
2022/03/13 10:50:04;;;;;;;;;0.75;0.75;;;;;14.33;50.63;100766.38;5021995;28;45464;-71
2022/03/13 10:52:41;;;;;;;;;1.00;1.00;;;;;14.25;51.25;100767.72;5017461;28;46470;-72
2022/03/13 10:55:18;;;;;;;;;2.50;1.00;;;;;14.15;51.36;100766.56;5027032;28;45332;-71
2022/03/13 10:57:54;;;;;;;;;1.75;1.00;;;;;14.12;51.82;100770.25;5019977;28;46141;-71
2022/03/13 11:00:21;;;;;;;;;2.00;2.00;;;;;14.09;51.88;100773.03;5028841;28;45820;-71
2022/03/13 11:02:47;;;;;;;;;2.00;2.00;;;;;14.06;51.99;100776.72;5023515;28;45591;-72
2022/03/13 11:05:12;;;;;;;;;1.00;1.00;;;;;14.00;52.43;100771.81;5021237;28;45712;-72
2022/03/13 11:07:38;;;;;;;;;1.75;1.00;;;;;13.98;52.06;100775.44;5014314;28;45376;-72
2022/03/13 11:10:06;;;;;;;;;1.00;1.00;;;;;13.90;52.50;100772.41;5013108;28;45431;-72
2022/03/13 11:12:32;;;;;;;;;2.00;2.00;;;;;13.88;52.60;100776.91;5017720;28;45472;-72
2022/03/13 11:15:00;;;;;;;;;1.00;1.00;;;;;13.87;52.92;100775.22;5011641;28;45666;-71
2022/03/13 11:17:31;;;;;;;;;1.00;1.00;;;;;13.86;52.74;100776.16;5016008;28;46081;-72
2022/03/13 11:19:58;;;;;;;;;2.00;2.00;;;;;13.87;52.88;100772.56;5011731;28;45297;-70
2022/03/13 11:22:26;;;;;;;;;3.00;2.25;;;;;13.85;53.36;100764.72;5000842;28;45341;-71
2022/03/13 11:24:54;;;;;;;;;2.00;1.00;;;;;13.89;53.00;100770.72;4994496;28;45799;-72